Ana Sayfa
METAR-TAF:

METAR-TAF

Havaalanları :

San Angelo Regional Airport (Mathis Field)

San Angelo, Teksas, Amerika Birleşik Devletleri

Enlem: 31-21-05N, Boylam: 100-29-38W, yükseklik: 584 m

Güncel hava durumu gözlemi

Rapor saat 07:51 UTC de 36 dakika önce yapıldı.
Sakin rüzgar
Sıcaklık 2°C
Nem 80%
Basınç 1027 hPa
Görüş mesafesi: 16.1 km
Açık gökyüzü

METAR: KSJT 070751Z AUTO 00000KT 10SM CLR 02/M01 A3032 RMK AO2 SLP267 T00221011

Saat: 02:27 (08:27 UTC)

Tahmin

Rapor saat 05:20 UTC de 3 saat ve 7 dakika önce yapıldı.
Ayın 07'si saat 06 UTC'den ayın 08'si saat 06 UTC'ye kadar geçerli Tahmin
Rüzgar değişken yönden 4 kt
Görüş mesafesi: 10 km
25000 ft yükseklikte parçalı bulutlu
Ayın 07'si saat 1700 UTC'den
Rüzgar güneydan 9 kt
Görüş mesafesi: 10 km
25000 ft yükseklikte parçalı bulutlu

TAF: KSJT 070520Z 0706/0806 VRB04KT P6SM SCT250 FM071700 19009KT P6SM SCT250

4.000'den fazla havaalanı için hava durumu gözlemleri ve tahminleri (METAR ve TAF raporları).

Kullanılabilir istasyonlar harita üzerinde sarı ve kırmızı noktalarla gösterilir.

İstasyonun adını görmek için fareyi noktanın üzerinde gezdirin.

Sonrasında hava gözlem ve tahminlerini görmek için tıklayın.

Haritayı değiştirmek için: yaklaştırmak için siyah artı işaretli yeşil düğmeye ve uzaklaştırmak için de eksi işaretli düğmeye hızla tıklayın; bitişik haritalar için yeşil okları kullanın.


METAR-TAF: